Time;durP1;ratioP1;P1;durP2;ratioP2;P2;SDS_P1;SDS_P2;PMS_P1;PMS_P2;Temp;Humidity;BMP_temperature;BMP_pressure;BME280_temperature;BME280_humidity;BME280_pressure;Samples;Min_cycle;Max_cycle;Signal;HPM_P1;HPM_P2
2021/12/25 00:00:18;;;;;;;17.47;10.77;;;;;;;0.87;86.54;97484.71;1804445;78;21152;-51
2021/12/25 00:02:45;;;;;;;11.63;8.10;;;;;;;0.91;86.55;97491.61;1760470;79;20973;-50
2021/12/25 00:05:11;;;;;;;14.17;7.93;;;;;;;0.94;86.54;97479.98;1803099;77;21086;-51
2021/12/25 00:07:38;;;;;;;11.83;7.90;;;;;;;0.97;86.53;97480.72;1793189;78;21093;-52
2021/12/25 00:10:06;;;;;;;13.40;8.23;;;;;;;1.00;86.55;97477.08;1789448;78;20947;-50
2021/12/25 00:12:33;;;;;;;14.57;8.70;;;;;;;1.04;86.61;97474.66;1808841;78;21077;-49
2021/12/25 00:15:00;;;;;;;12.40;8.43;;;;;;;1.07;86.57;97469.23;1775039;78;21061;-51
2021/12/25 00:17:27;;;;;;;12.50;9.33;;;;;;;1.09;86.61;97463.41;1773188;79;20876;-50
2021/12/25 00:19:54;;;;;;;12.53;8.67;;;;;;;1.11;86.63;97458.88;1779406;78;20956;-50
2021/12/25 00:22:21;;;;;;;13.17;8.80;;;;;;;1.14;86.60;97461.39;1806224;78;21017;-50
2021/12/25 00:24:48;;;;;;;9.47;6.83;;;;;;;1.18;86.57;97464.77;1806121;78;21090;-50
2021/12/25 00:27:39;;;;;;;11.90;7.57;;;;;;;1.20;86.56;97464.20;1802914;78;21056;-51
2021/12/25 00:29:56;;;;;;;10.50;7.03;;;;;;;1.23;86.58;97459.64;1800233;78;26920;-49
2021/12/25 00:34:49;;;;;;;11.87;8.87;;;;;;;1.29;86.58;97463.31;1810115;78;20899;-50
2021/12/25 00:37:16;;;;;;;10.03;7.83;;;;;;;1.34;86.58;97467.09;1804131;78;21156;-49
2021/12/25 00:39:45;;;;;;;12.30;7.83;;;;;;;1.35;86.52;97464.37;1777694;78;21101;-51
2021/12/25 00:42:12;;;;;;;11.70;7.90;;;;;;;1.38;86.42;97461.55;1773374;80;21581;-48
2021/12/25 00:44:38;;;;;;;11.87;7.10;;;;;;;1.42;86.36;97464.92;1777454;79;21092;-48
2021/12/25 00:47:05;;;;;;;13.93;7.90;;;;;;;1.44;86.34;97462.60;1776545;79;21060;-49
2021/12/25 00:49:33;;;;;;;12.53;7.20;;;;;;;1.47;86.31;97459.78;1779976;79;21820;-47
2021/12/25 00:51:59;;;;;;;10.80;7.27;;;;;;;1.50;86.30;97453.02;1777997;79;22629;-51
2021/12/25 00:54:25;;;;;;;10.00;7.30;;;;;;;1.53;86.26;97454.17;1759473;80;21612;-50
2021/12/25 00:56:52;;;;;;;8.93;6.70;;;;;;;1.56;86.25;97454.97;1759012;80;22208;-48
2021/12/25 00:59:20;;;;;;;8.73;6.60;;;;;;;1.59;86.16;97454.83;1759434;80;21748;-50
2021/12/25 01:01:47;;;;;;;9.73;6.43;;;;;;;1.62;86.07;97449.36;1759970;80;22674;-49
2021/12/25 01:04:14;;;;;;;10.57;6.57;;;;;;;1.65;85.98;97451.88;1761591;80;21033;-50
2021/12/25 01:06:40;;;;;;;7.83;5.53;;;;;;;1.69;85.92;97454.78;1757734;80;21061;-49
2021/12/25 01:09:08;;;;;;;7.57;6.33;;;;;;;1.72;85.85;97458.58;1762575;79;20928;-48
2021/12/25 01:11:36;;;;;;;10.67;6.17;;;;;;;1.74;85.81;97460.23;1769657;80;20942;-51
2021/12/25 01:14:12;;;;;;;11.53;8.17;;;;;;;1.76;85.76;97457.05;1760681;79;21899;-49
2021/12/25 01:25:00;;;;;;;7.63;5.80;;;;;;;1.85;85.45;97451.29;1769729;80;21034;-50
2021/12/25 01:27:42;;;;;;;;;;;;;;;1.88;85.33;97451.58;1767836;80;20926;-48
2021/12/25 01:30:00;;;;;;;9.23;5.77;;;;;;;1.90;85.25;97453.70;1767308;80;20232;-48
2021/12/25 01:40:54;;;;;;;8.77;5.47;;;;;;;1.94;84.88;97460.58;1769090;80;21081;-49
2021/12/25 01:49:04;;;;;;;6.53;4.93;;;;;;;2.01;84.74;97469.95;1761434;80;21124;-50
2021/12/25 01:51:32;;;;;;;8.13;5.83;;;;;;;2.03;84.67;97472.06;1766164;79;21113;-49
2021/12/25 01:53:59;;;;;;;6.97;5.50;;;;;;;2.05;84.64;97467.52;1774553;79;21168;-50
2021/12/25 01:56:26;;;;;;;5.87;4.67;;;;;;;2.06;84.55;97474.55;1783890;78;22367;-50
2021/12/25 01:58:52;;;;;;;7.20;4.57;;;;;;;2.06;84.44;97468.38;1779694;79;21858;-51
2021/12/25 02:01:18;;;;;;;5.53;3.47;;;;;;;2.09;84.43;97475.73;1781450;78;21637;-51
2021/12/25 02:03:45;;;;;;;6.60;4.57;;;;;;;2.10;84.44;97481.89;1804466;78;21194;-52
2021/12/25 02:06:12;;;;;;;4.43;3.37;;;;;;;2.13;84.45;97482.58;1803499;78;21594;-52
2021/12/25 02:08:42;;;;;;;5.23;4.10;;;;;;;2.16;84.42;97485.56;1803153;78;21057;-52
2021/12/25 02:11:10;;;;;;;6.03;3.60;;;;;;;2.20;84.41;97489.33;1774674;79;20861;-52
2021/12/25 02:13:40;;;;;;;4.43;3.87;;;;;;;2.23;84.37;97493.13;1808602;77;21091;-52
2021/12/25 02:16:13;;;;;;;6.30;3.57;;;;;;;2.25;84.26;97488.61;1809758;77;20866;-50
2021/12/25 02:21:22;;;;;;;5.70;2.63;;;;;;;2.31;84.08;97490.55;1769171;78;21555;-53
2021/12/25 02:23:48;;;;;;;3.90;2.53;;;;;;;2.34;84.01;97482.44;1805215;78;21048;-52
2021/12/25 02:26:14;;;;;;;3.70;2.57;;;;;;;2.37;83.94;97491.12;1773502;79;21094;-52
2021/12/25 02:28:41;;;;;;;5.07;2.67;;;;;;;2.40;83.92;97488.75;1768241;79;21129;-52
2021/12/25 02:31:09;;;;;;;3.80;2.83;;;;;;;2.44;83.84;97499.63;1777223;78;21369;-49
2021/12/25 02:33:36;;;;;;;7.23;2.67;;;;;;;2.46;83.73;97503.06;1773785;78;20967;-52
2021/12/25 02:36:04;;;;;;;4.17;2.90;;;;;;;2.46;83.63;97497.75;1809066;78;21034;-50
2021/12/25 02:38:31;;;;;;;4.03;2.77;;;;;;;2.47;83.55;97502.09;1780042;78;21079;-52
2021/12/25 02:40:57;;;;;;;3.63;2.50;;;;;;;2.49;83.50;97516.16;1784169;79;21142;-48
2021/12/25 02:43:24;;;;;;;4.73;2.20;;;;;;;2.50;83.47;97510.78;1784744;79;21312;-51
2021/12/25 02:45:56;;;;;;;4.20;2.43;;;;;;;2.52;83.43;97519.53;1787256;78;21098;-50
2021/12/25 02:48:22;;;;;;;5.10;2.50;;;;;;;2.56;83.38;97526.86;1786327;79;21083;-51
2021/12/25 02:50:49;;;;;;;2.73;2.00;;;;;;;2.59;83.31;97526.71;1786808;78;21355;-50
2021/12/25 02:53:16;;;;;;;6.37;3.00;;;;;;;2.60;83.25;97541.24;1805844;78;21132;-50
2021/12/25 02:55:45;;;;;;;2.63;1.57;;;;;;;2.63;83.18;97536.25;1808754;78;21296;-48
2021/12/25 02:58:13;;;;;;;1.80;1.50;;;;;;;2.65;83.12;97533.02;1804054;77;21081;-51
2021/12/25 03:00:45;;;;;;;2.50;1.10;;;;;;;2.69;83.08;97535.92;1813471;77;20929;-50
2021/12/25 03:03:11;;;;;;;3.40;1.40;;;;;;;2.71;83.02;97528.75;1804928;77;20882;-50
2021/12/25 03:05:37;;;;;;;5.30;1.90;;;;;;;2.75;82.96;97533.41;1812866;77;20957;-52
2021/12/25 03:08:06;;;;;;;2.37;1.87;;;;;;;2.76;82.92;97539.11;1814089;78;21158;-52
2021/12/25 03:10:35;;;;;;;2.50;1.53;;;;;;;2.80;82.87;97549.98;1808881;78;21052;-52
2021/12/25 03:15:46;;;;;;;2.77;1.67;;;;;;;2.81;82.70;97558.32;1758439;78;22247;-52
2021/12/25 03:18:19;;;;;;;2.23;1.03;;;;;;;2.82;82.64;97564.89;1807316;77;21041;-50
2021/12/25 03:20:49;;;;;;;1.82;0.93;;;;;;;2.82;82.59;97574.19;1809416;77;21294;-49
2021/12/25 03:23:18;;;;;;;2.53;1.70;;;;;;;2.85;82.56;97585.14;1777170;80;22452;-49
2021/12/25 03:25:45;;;;;;;1.67;1.30;;;;;;;2.86;82.52;97574.90;1776297;80;21060;-51
2021/12/25 03:28:11;;;;;;;2.23;1.40;;;;;;;2.87;82.43;97584.59;1810165;78;21155;-50
2021/12/25 03:30:39;;;;;;;3.43;1.43;;;;;;;2.86;82.33;97593.03;1742923;80;21096;-50
2021/12/25 03:33:07;;;;;;;2.20;1.30;;;;;;;2.84;82.28;97597.56;1774788;80;21070;-50
2021/12/25 03:35:34;;;;;;;5.27;1.33;;;;;;;2.84;82.27;97594.05;1782806;80;21465;-50
2021/12/25 03:38:04;;;;;;;3.20;1.20;;;;;;;2.83;82.25;97597.17;1775774;78;21696;-50
2021/12/25 03:40:30;;;;;;;4.00;1.37;;;;;;;2.86;82.26;97617.41;1817241;77;20910;-51
2021/12/25 03:42:57;;;;;;;1.97;1.40;;;;;;;2.88;82.20;97613.75;1812548;77;21058;-50
2021/12/25 03:45:24;;;;;;;1.80;1.10;;;;;;;2.88;82.17;97612.42;1806826;77;21193;-51
2021/12/25 03:48:02;;;;;;;1.50;1.00;;;;;;;2.89;82.01;97615.44;1812483;78;21068;-50
2021/12/25 03:53:24;;;;;;;1.70;1.07;;;;;;;2.87;81.81;97634.61;1783837;78;20972;-50
2021/12/25 03:58:29;;;;;;;2.10;0.88;;;;;;;2.87;81.83;97664.31;1755505;80;21427;-50
2021/12/25 04:00:59;;;;;;;1.87;1.10;;;;;;;2.88;81.86;97672.67;1758786;78;20954;-51
2021/12/25 04:03:38;;;;;;;1.33;0.90;;;;;;;2.87;81.96;97680.25;1743069;80;21053;-51
2021/12/25 04:05:49;;;;;;;2.47;1.10;;;;;;;2.88;82.13;97680.65;1779048;78;21505;-50
2021/12/25 04:08:20;;;;;;;1.30;0.90;;;;;;;2.84;82.20;97687.90;1747299;80;20902;-51
2021/12/25 04:10:46;;;;;;;1.50;0.90;;;;;;;2.79;82.30;97709.87;1785561;78;21498;-52
2021/12/25 04:13:15;;;;;;;1.23;0.70;;;;;;;2.76;82.39;97717.11;1763648;79;20896;-52
2021/12/25 04:15:41;;;;;;;1.07;0.73;;;;;;;2.69;82.55;97709.05;1764160;79;20902;-53
2021/12/25 04:18:08;;;;;;;1.37;0.80;;;;;;;2.64;82.66;97729.19;1761649;79;21025;-52
2021/12/25 04:20:35;;;;;;;1.20;0.80;;;;;;;2.61;82.79;97722.25;1768243;79;20954;-52
2021/12/25 04:23:08;;;;;;;1.50;0.90;;;;;;;2.59;82.87;97728.56;1766714;79;21109;-52
2021/12/25 04:25:34;;;;;;;0.97;0.70;;;;;;;2.57;82.95;97730.42;1761824;79;20966;-51
2021/12/25 04:28:28;;;;;;;1.30;0.90;;;;;;;2.54;83.04;97734.11;1764390;79;20927;-51
2021/12/25 05:04:03;;;;;;;1.20;0.70;;;;;;;2.10;83.78;97842.82;1759227;80;21928;-51
2021/12/25 05:06:31;;;;;;;1.13;0.60;;;;;;;2.05;83.84;97844.34;1758147;80;21746;-51
2021/12/25 05:08:57;;;;;;;1.00;0.70;;;;;;;2.03;83.91;97850.20;1756706;79;21101;-52
2021/12/25 05:11:24;;;;;;;1.10;0.60;;;;;;;2.00;83.85;97853.44;1759409;80;21088;-52
2021/12/25 05:13:51;;;;;;;0.90;0.60;;;;;;;1.96;83.83;97861.16;1760238;80;21101;-52
2021/12/25 05:16:20;;;;;;;1.00;0.50;;;;;;;1.93;83.75;97876.73;1761934;80;23302;-51
2021/12/25 05:18:46;;;;;;;1.47;0.50;;;;;;;1.93;83.67;97874.08;1735828;80;21034;-52
2021/12/25 05:21:14;;;;;;;0.70;0.50;;;;;;;1.89;83.61;97873.80;1733947;80;21112;-51
2021/12/25 05:23:41;;;;;;;0.60;0.37;;;;;;;1.87;83.48;97885.80;1761611;80;21193;-52
2021/12/25 05:26:08;;;;;;;0.70;0.50;;;;;;;1.85;83.39;97912.89;1761459;80;21045;-51
2021/12/25 05:28:43;;;;;;;1.27;0.40;;;;;;;1.81;83.38;97923.21;1760432;80;21414;-52
2021/12/25 05:31:11;;;;;;;0.80;0.40;;;;;;;1.78;83.33;97926.48;1757918;79;21515;-51
2021/12/25 05:33:58;;;;;;;0.53;0.37;;;;;;;1.73;83.31;97933.28;1758288;79;21061;-51
2021/12/25 05:36:41;;;;;;;1.07;0.40;;;;;;;1.66;83.24;97932.28;1746563;81;21421;-51
2021/12/25 05:39:27;;;;;;;0.93;0.40;;;;;;;1.59;83.25;97930.35;1752534;80;21100;-51
2021/12/25 05:41:54;;;;;;;0.70;0.43;;;;;;;1.53;83.29;97935.05;1740852;79;21145;-51
2021/12/25 05:44:22;;;;;;;0.70;0.33;;;;;;;1.48;83.35;97941.39;1767074;79;21071;-51
2021/12/25 05:46:54;;;;;;;1.43;0.40;;;;;;;1.50;83.32;97966.06;1762632;79;21080;-51
2021/12/25 05:49:20;;;;;;;1.47;0.50;;;;;;;1.50;83.27;97963.41;1769986;79;21009;-51
2021/12/25 05:51:55;;;;;;;0.80;0.50;;;;;;;1.48;83.20;97959.08;1766703;79;21076;-51
2021/12/25 05:54:23;;;;;;;0.90;0.60;;;;;;;1.43;83.14;97963.72;1748686;80;21554;-51
2021/12/25 05:57:08;;;;;;;;;;;;;;;1.40;83.09;97982.39;1780358;78;21601;-51
2021/12/25 05:59:39;;;;;;;0.97;0.50;;;;;;;1.40;83.03;97991.67;1802710;78;20181;-52
2021/12/25 06:02:19;;;;;;;1.10;0.60;;;;;;;1.37;82.92;98008.55;1738022;77;22413;-51
2021/12/25 06:04:48;;;;;;;1.17;0.60;;;;;;;1.38;82.91;98024.00;1771050;79;21146;-51
2021/12/25 06:07:14;;;;;;;0.90;0.60;;;;;;;1.37;82.87;98031.08;1797950;78;22642;-51
2021/12/25 06:09:42;;;;;;;0.90;0.70;;;;;;;1.37;82.65;98025.78;1779008;79;22161;-52
2021/12/25 06:12:11;;;;;;;1.67;0.93;;;;;;;1.36;82.46;98028.52;1780031;78;21458;-52
2021/12/25 06:14:38;;;;;;;1.70;0.83;;;;;;;1.34;82.26;98039.17;1800392;78;21087;-51
2021/12/25 06:17:06;;;;;;;0.80;0.53;;;;;;;1.29;81.97;98046.42;1767445;80;21085;-51
2021/12/25 06:19:35;;;;;;;1.20;0.70;;;;;;;1.27;81.77;98058.89;1797956;78;21151;-52
2021/12/25 06:22:03;;;;;;;1.20;0.77;;;;;;;1.25;81.68;98063.84;1796432;78;21061;-53
2021/12/25 06:24:32;;;;;;;1.67;0.90;;;;;;;1.23;81.56;98078.47;1804664;78;21201;-54
2021/12/25 06:27:00;;;;;;;1.30;0.80;;;;;;;1.23;81.39;98085.09;1804091;78;21114;-52
2021/12/25 06:29:47;;;;;;;2.33;1.30;;;;;;;1.22;81.22;98095.75;1812111;78;21104;-53
2021/12/25 06:32:15;;;;;;;1.60;0.90;;;;;;;1.20;81.01;98100.23;1752242;78;21137;-53
2021/12/25 06:34:49;;;;;;;1.62;1.00;;;;;;;1.18;80.73;98106.94;1778517;78;21570;-50
2021/12/25 06:37:34;;;;;;;;;;;;;;;1.13;80.49;98100.47;1782711;78;21459;-54
2021/12/25 06:40:11;;;;;;;2.33;1.00;;;;;;;1.12;80.33;98106.69;1781354;79;20502;-53
2021/12/25 06:42:39;;;;;;;1.63;1.00;;;;;;;1.06;80.15;98123.27;1774141;79;21105;-53
2021/12/25 06:45:07;;;;;;;1.30;0.93;;;;;;;1.01;79.89;98127.42;1798225;78;21141;-54
2021/12/25 06:47:36;;;;;;;2.37;1.40;;;;;;;0.97;79.82;98139.50;1784752;78;21082;-54
2021/12/25 06:50:07;;;;;;;1.90;1.00;;;;;;;0.93;79.80;98139.22;1759467;78;21062;-54
2021/12/25 06:52:51;;;;;;;1.70;0.90;;;;;;;0.91;79.71;98142.38;1807261;78;21867;-54
2021/12/25 06:55:17;;;;;;;2.83;1.00;;;;;;;0.87;79.52;98152.20;1777917;79;21637;-54
2021/12/25 06:58:04;;;;;;;1.80;1.10;;;;;;;0.85;79.50;98154.52;1806452;78;21166;-54
2021/12/25 07:00:30;;;;;;;2.03;1.10;;;;;;;0.85;79.43;98149.22;1781455;78;20904;-54
2021/12/25 07:02:59;;;;;;;2.43;1.20;;;;;;;0.84;79.30;98160.73;1791217;79;20872;-54
2021/12/25 07:05:44;;;;;;;3.67;1.50;;;;;;;0.82;79.26;98158.58;1809124;78;20937;-54
2021/12/25 07:08:12;;;;;;;2.13;1.27;;;;;;;0.81;79.20;98166.12;1753755;78;20997;-53
2021/12/25 07:10:46;;;;;;;2.55;1.30;;;;;;;0.80;79.21;98182.47;1807222;78;21084;-54
2021/12/25 07:13:19;;;;;;;1.93;1.30;;;;;;;0.80;79.07;98164.38;1805977;78;20966;-54
2021/12/25 07:15:55;;;;;;;1.83;1.10;;;;;;;0.80;78.98;98173.20;1807485;77;20903;-53
2021/12/25 07:18:27;;;;;;;2.87;1.53;;;;;;;0.77;78.94;98181.23;1803015;78;20940;-53
2021/12/25 07:20:55;;;;;;;2.10;1.10;;;;;;;0.78;78.87;98178.13;1809150;78;21009;-54
2021/12/25 07:23:24;;;;;;;2.00;1.17;;;;;;;0.78;78.93;98190.91;1778928;78;21002;-54
2021/12/25 07:25:59;;;;;;;3.20;1.30;;;;;;;0.78;78.83;98204.61;1763772;79;21412;-54
2021/12/25 07:28:28;;;;;;;2.57;1.63;;;;;;;0.76;78.81;98195.42;1776563;79;20982;-53
2021/12/25 07:30:58;;;;;;;3.10;1.60;;;;;;;0.75;78.80;98202.95;1780289;79;20922;-53
2021/12/25 07:33:24;;;;;;;1.90;1.30;;;;;;;0.74;78.80;98213.14;1780476;79;21082;-53
2021/12/25 07:35:53;;;;;;;4.07;1.87;;;;;;;0.73;78.78;98218.89;1807688;78;20970;-53
2021/12/25 07:38:20;;;;;;;2.03;1.47;;;;;;;0.72;78.65;98233.05;1803205;78;20938;-54
2021/12/25 07:40:47;;;;;;;2.53;1.70;;;;;;;0.73;78.70;98246.70;1809734;78;20930;-53
2021/12/25 07:43:14;;;;;;;3.67;1.73;;;;;;;0.79;78.61;98256.67;1786324;79;20959;-53
2021/12/25 07:45:42;;;;;;;1.97;1.60;;;;;;;0.82;78.53;98250.83;1769259;80;20993;-53
2021/12/25 07:48:08;;;;;;;3.50;1.97;;;;;;;0.88;78.40;98259.02;1775360;79;21120;-53
2021/12/25 07:50:35;;;;;;;3.43;2.07;;;;;;;0.92;78.22;98264.64;1781894;78;21073;-53
2021/12/25 07:53:01;;;;;;;3.77;1.87;;;;;;;0.96;77.92;98275.07;1800976;77;21044;-53
2021/12/25 07:55:30;;;;;;;3.60;1.97;;;;;;;1.02;77.71;98285.95;1799519;78;21048;-53
2021/12/25 07:57:57;;;;;;;1.90;1.70;;;;;;;1.04;77.44;98288.93;1787457;78;21384;-52
2021/12/25 08:00:24;;;;;;;3.00;1.50;;;;;;;1.09;77.29;98290.12;1782781;78;21176;-52
2021/12/25 08:02:50;;;;;;;2.57;1.70;;;;;;;1.10;77.00;98299.80;1786933;79;21043;-53
2021/12/25 08:05:17;;;;;;;2.13;1.50;;;;;;;1.12;76.83;98307.22;1783973;78;21362;-53
2021/12/25 08:07:44;;;;;;;4.37;1.63;;;;;;;1.14;76.67;98308.91;1786703;78;21101;-53
2021/12/25 08:10:20;;;;;;;2.73;1.60;;;;;;;1.17;76.62;98305.77;1786558;78;21106;-54
2021/12/25 08:12:56;;;;;;;5.47;2.27;;;;;;;1.22;76.49;98302.48;1815026;78;21034;-53
2021/12/25 08:15:26;;;;;;;4.45;2.17;;;;;;;1.23;76.36;98309.52;1777766;79;26696;-53
2021/12/25 08:17:53;;;;;;;4.50;2.10;;;;;;;1.23;76.26;98313.03;1780319;79;20895;-53
2021/12/25 08:20:34;;;;;;;7.17;3.13;;;;;;;1.24;76.21;98324.05;1804619;78;21124;-53
2021/12/25 08:23:20;;;;;;;4.73;2.87;;;;;;;1.26;76.18;98322.68;1783268;79;20962;-53
2021/12/25 08:26:05;;;;;;;4.72;2.35;;;;;;;1.27;76.10;98329.72;1790325;78;21059;-53
2021/12/25 08:28:46;;;;;;;6.50;2.73;;;;;;;1.28;76.10;98328.31;1787932;78;21084;-53
2021/12/25 08:31:33;;;;;;;4.50;2.33;;;;;;;1.27;75.94;98343.84;1786482;78;21146;-53
2021/12/25 08:34:18;;;;;;;5.20;3.22;;;;;;;1.27;75.97;98347.81;1780764;78;27400;-54
2021/12/25 08:36:54;;;;;;;5.30;2.77;;;;;;;1.27;75.79;98352.25;1812912;77;21262;-54
2021/12/25 08:39:20;;;;;;;5.80;3.00;;;;;;;1.26;75.85;98351.38;1815365;78;22623;-53
2021/12/25 08:41:48;;;;;;;4.40;3.20;;;;;;;1.26;75.86;98356.69;1811103;77;21478;-53
2021/12/25 08:44:33;;;;;;;4.03;2.93;;;;;;;1.26;75.86;98359.34;1807647;78;21076;-54
2021/12/25 08:47:00;;;;;;;5.83;3.27;;;;;;;1.27;75.91;98358.42;1812753;78;21052;-52
2021/12/25 08:49:31;;;;;;;5.67;3.10;;;;;;;1.27;75.83;98361.53;1816219;78;21342;-51
2021/12/25 08:51:59;;;;;;;3.63;2.33;;;;;;;1.29;75.77;98366.30;1817092;78;21510;-53
2021/12/25 08:54:25;;;;;;;3.43;2.67;;;;;;;1.28;75.55;98363.23;1816419;78;21367;-53
2021/12/25 08:56:52;;;;;;;4.63;1.97;;;;;;;1.28;74.77;98364.56;1808551;78;21033;-52
2021/12/25 08:59:18;;;;;;;3.97;2.43;;;;;;;1.26;74.39;98363.31;1807915;78;21064;-53
2021/12/25 09:01:44;;;;;;;3.63;2.30;;;;;;;1.26;74.21;98370.39;1809460;78;22453;-53
2021/12/25 09:04:11;;;;;;;4.27;2.60;;;;;;;1.26;73.63;98361.12;1801556;78;20962;-53
2021/12/25 09:06:38;;;;;;;3.93;2.50;;;;;;;1.28;73.13;98371.19;1781853;78;21483;-53
2021/12/25 09:09:07;;;;;;;3.50;2.00;;;;;;;1.30;72.56;98360.95;1803437;78;21021;-52
2021/12/25 09:11:35;;;;;;;3.23;2.33;;;;;;;1.31;72.33;98366.66;1802105;78;20887;-52
2021/12/25 09:14:01;;;;;;;3.77;2.17;;;;;;;1.35;71.83;98370.96;1807424;78;21752;-53
2021/12/25 09:16:28;;;;;;;5.27;2.57;;;;;;;1.37;71.27;98366.45;1804346;78;21546;-53
2021/12/25 09:18:54;;;;;;;5.40;3.03;;;;;;;1.37;70.79;98366.91;1810436;78;21086;-53
2021/12/25 09:21:21;;;;;;;4.77;2.53;;;;;;;1.38;70.41;98384.09;1774996;78;21156;-53
2021/12/25 09:23:48;;;;;;;4.20;2.37;;;;;;;1.39;70.06;98390.27;1777247;78;21235;-53
2021/12/25 09:26:14;;;;;;;4.30;2.43;;;;;;;1.42;69.88;98406.09;1791515;78;21427;-52
2021/12/25 09:28:41;;;;;;;3.90;1.80;;;;;;;1.44;69.23;98410.43;1779647;79;22804;-52
2021/12/25 09:31:07;;;;;;;5.03;2.63;;;;;;;1.43;68.82;98403.84;1775759;79;21518;-53
2021/12/25 09:33:34;;;;;;;3.93;2.17;;;;;;;1.43;68.86;98398.55;1778469;79;21014;-53
2021/12/25 09:36:02;;;;;;;4.23;2.50;;;;;;;1.43;68.67;98406.05;1773790;79;21076;-53
2021/12/25 09:38:30;;;;;;;5.43;2.63;;;;;;;1.45;68.50;98416.57;1777393;79;21052;-53
2021/12/25 09:40:57;;;;;;;8.47;3.63;;;;;;;1.44;67.94;98423.69;1775889;79;21116;-52
2021/12/25 09:43:25;;;;;;;3.87;1.20;;;;;;;1.43;67.65;98421.08;1775625;79;22271;-52
2021/12/25 09:45:52;;;;;;;3.20;1.53;;;;;;;1.39;66.66;98432.23;1782075;79;20973;-52
2021/12/25 09:48:18;;;;;;;1.80;1.00;;;;;;;1.33;66.25;98419.64;1781164;79;21462;-53
2021/12/25 09:50:45;;;;;;;3.73;1.37;;;;;;;1.25;64.77;98412.39;1804838;77;20963;-52
2021/12/25 09:53:13;;;;;;;1.53;0.83;;;;;;;1.13;64.37;98416.29;1801902;78;21074;-52
2021/12/25 09:55:40;;;;;;;1.10;0.70;;;;;;;0.99;63.42;98432.63;1810411;78;21936;-52
2021/12/25 09:58:07;;;;;;;2.53;0.97;;;;;;;0.89;63.03;98440.90;1784053;79;21345;-52
2021/12/25 10:00:36;;;;;;;1.43;0.80;;;;;;;0.80;62.67;98434.55;1789319;79;20953;-53
2021/12/25 10:03:02;;;;;;;2.83;0.73;;;;;;;0.72;63.07;98440.08;1791297;79;21348;-52
2021/12/25 10:05:36;;;;;;;1.40;0.80;;;;;;;0.70;63.38;98452.49;1787575;79;21816;-52
2021/12/25 10:08:13;;;;;;;1.72;0.80;;;;;;;0.69;63.67;98442.36;1789955;79;21027;-52
2021/12/25 10:10:47;;;;;;;1.97;1.07;;;;;;;0.70;63.67;98448.52;1790507;79;20898;-53
2021/12/25 10:13:36;;;;;;;5.15;0.90;;;;;;;0.71;63.63;98448.94;1790345;78;20965;-51
2021/12/25 10:16:31;;;;;;;2.97;1.27;;;;;;;0.70;63.61;98463.95;1789483;79;21443;-52
2021/12/25 10:19:16;;;;;;;2.27;0.93;;;;;;;0.74;63.58;98464.30;1785868;79;21797;-51
2021/12/25 10:21:43;;;;;;;2.10;0.93;;;;;;;0.77;63.32;98461.98;1790464;79;21462;-52
2021/12/25 10:24:25;;;;;;;2.33;1.03;;;;;;;0.80;63.52;98471.64;1786326;79;20902;-52
2021/12/25 10:26:47;;;;;;;1.73;0.80;;;;;;;0.81;63.26;98457.48;1787119;79;21322;-51
2021/12/25 10:29:26;;;;;;;2.33;0.70;;;;;;;0.82;62.63;98468.49;1790040;79;20969;-52
2021/12/25 10:31:56;;;;;;;2.43;0.70;;;;;;;0.79;61.73;98464.59;1789961;78;21109;-51
2021/12/25 10:34:24;;;;;;;1.10;0.63;;;;;;;0.72;59.91;98463.92;1788667;79;21001;-52
2021/12/25 10:36:50;;;;;;;1.17;0.67;;;;;;;0.64;59.39;98469.44;1808913;77;20939;-51
2021/12/25 10:42:12;;;;;;;0.90;0.50;;;;;;;0.69;58.37;98470.62;1790708;78;26379;-52
2021/12/25 10:44:41;;;;;;;0.80;0.50;;;;;;;0.65;57.94;98479.13;1754391;80;21061;-51
2021/12/25 10:47:21;;;;;;;0.87;0.57;;;;;;;0.69;57.68;98479.89;1763195;79;21788;-52
2021/12/25 10:49:51;;;;;;;1.33;0.70;;;;;;;0.71;57.34;98484.23;1764827;79;20906;-52
2021/12/25 10:52:26;;;;;;;1.60;0.67;;;;;;;0.72;56.67;98486.44;1731717;81;20967;-51
2021/12/25 10:54:55;;;;;;;;;;;;;;;0.71;56.45;98493.51;1735826;81;21064;-51
2021/12/25 10:57:37;;;;;;;1.20;0.70;;;;;;;0.71;56.59;98478.07;1713002;81;20553;-52
2021/12/25 11:00:10;;;;;;;2.40;0.80;;;;;;;0.66;56.22;98470.27;1712678;82;21514;-52
2021/12/25 11:02:43;;;;;;;1.80;0.80;;;;;;;0.65;56.26;98504.28;1714639;82;20923;-51
2021/12/25 11:05:29;;;;;;;2.13;0.73;;;;;;;0.66;55.75;98494.11;1717004;83;20950;-52
2021/12/25 11:08:16;;;;;;;2.00;0.70;;;;;;;0.63;54.89;98503.45;1702783;82;21082;-51
2021/12/25 11:11:05;;;;;;;1.27;0.77;;;;;;;0.62;54.98;98518.92;1711218;83;21061;-52
2021/12/25 11:13:39;;;;;;;1.13;0.60;;;;;;;0.62;54.84;98508.33;1711602;82;21128;-52
2021/12/25 11:16:27;;;;;;;1.53;0.70;;;;;;;0.61;53.92;98521.61;1714538;83;20950;-51
2021/12/25 11:19:11;;;;;;;1.10;0.60;;;;;;;0.61;53.65;98515.86;1713681;83;21272;-51
2021/12/25 11:21:46;;;;;;;1.20;0.93;;;;;;;0.60;52.62;98519.87;1707185;82;21618;-51
2021/12/25 11:24:31;;;;;;;1.20;0.63;;;;;;;0.58;52.32;98522.59;1714080;82;21402;-52
2021/12/25 11:27:02;;;;;;;1.50;0.73;;;;;;;0.56;51.02;98529.70;1704259;82;21292;-51
2021/12/25 11:29:31;;;;;;;1.60;0.80;;;;;;;0.55;51.44;98528.41;1707844;83;20926;-52
2021/12/25 11:31:57;;;;;;;1.27;0.70;;;;;;;0.55;51.24;98541.65;1701076;82;20906;-51
2021/12/25 11:34:24;;;;;;;1.40;0.70;;;;;;;0.56;51.07;98524.41;1694239;83;21096;-50
2021/12/25 11:36:52;;;;;;;1.63;0.83;;;;;;;0.58;50.83;98558.79;1720492;81;21061;-50
2021/12/25 11:39:21;;;;;;;1.37;0.80;;;;;;;0.57;50.26;98558.37;1722012;81;21574;-52
2021/12/25 11:41:49;;;;;;;1.60;0.80;;;;;;;0.56;50.71;98557.50;1719419;82;21045;-51
2021/12/25 11:44:31;;;;;;;1.80;1.00;;;;;;;0.55;50.76;98559.73;1713671;82;21101;-51
2021/12/25 11:46:58;;;;;;;1.87;0.60;;;;;;;0.55;50.66;98565.02;1677860;83;21070;-51
2021/12/25 11:49:24;;;;;;;0.70;0.43;;;;;;;0.54;50.08;98576.52;1694706;83;21051;-51
2021/12/25 11:51:51;;;;;;;0.63;0.40;;;;;;;0.53;48.99;98573.91;1689002;83;23385;-51
2021/12/25 11:59:47;;;;;;;0.80;0.50;;;;;;;0.42;46.53;98587.45;1694844;82;21542;-51
2021/12/25 12:02:41;;;;;;;1.40;0.40;;;;;;;0.36;47.02;98593.76;1717234;83;20975;-51
2021/12/25 12:05:29;;;;;;;1.00;0.40;;;;;;;0.34;47.15;98590.76;1712647;83;21862;-52
2021/12/25 12:08:07;;;;;;;0.87;0.43;;;;;;;0.31;47.12;98604.93;1749133;81;22550;-51
2021/12/25 12:10:56;;;;;;;1.20;0.43;;;;;;;0.28;47.45;98619.55;1745769;81;21043;-51
2021/12/25 12:13:41;;;;;;;1.30;0.60;;;;;;;0.26;47.78;98620.03;1751297;80;20951;-51
2021/12/25 12:16:42;;;;;;;2.20;0.70;;;;;;;0.23;47.48;98616.62;1749027;81;21078;-51
2021/12/25 12:19:37;;;;;;;1.73;0.80;;;;;;;0.18;47.19;98593.34;1686043;83;21517;-51
2021/12/25 12:22:20;;;;;;;2.33;0.70;;;;;;;0.12;47.52;98595.70;1684606;83;21090;-52
2021/12/25 12:25:15;;;;;;;2.37;0.70;;;;;;;0.12;47.44;98616.00;1750007;79;21090;-51
2021/12/25 12:27:41;;;;;;;2.07;0.77;;;;;;;0.11;47.86;98619.55;1720067;81;21148;-52
2021/12/25 12:30:34;;;;;;;1.50;0.77;;;;;;;0.08;47.03;98616.55;1751601;81;21042;-52
2021/12/25 12:33:04;;;;;;;2.23;1.10;;;;;;;0.03;47.10;98634.30;1731233;81;23021;-52
2021/12/25 12:35:37;;;;;;;2.17;0.70;;;;;;;-0.02;47.51;98630.45;1720172;81;21058;-51
2021/12/25 12:38:44;;;;;;;1.90;0.70;;;;;;;-0.03;47.60;98635.31;1750918;81;21048;-51
2021/12/25 12:41:38;;;;;;;1.67;0.60;;;;;;;-0.03;47.18;98638.41;1686601;83;21686;-51
2021/12/25 12:44:16;;;;;;;1.70;0.77;;;;;;;-0.09;47.55;98643.86;1751100;81;20950;-50
2021/12/25 12:46:54;;;;;;;1.30;0.60;;;;;;;-0.10;47.86;98655.34;1752008;81;21765;-51
2021/12/25 12:49:28;;;;;;;2.03;0.80;;;;;;;-0.11;47.43;98651.82;1750596;81;20922;-51
2021/12/25 12:52:25;;;;;;;2.03;0.77;;;;;;;-0.13;47.96;98668.17;1746373;81;22188;-51
2021/12/25 12:55:10;;;;;;;1.47;0.73;;;;;;;-0.16;47.61;98667.36;1748448;81;21610;-51
2021/12/25 12:57:40;;;;;;;3.40;1.55;;;;;;;-0.20;47.75;98689.05;1746401;81;23041;-51
2021/12/25 13:00:22;;;;;;;3.40;1.30;;;;;;;-0.21;47.91;98679.83;1753592;80;21145;-51
2021/12/25 13:02:51;;;;;;;1.80;1.00;;;;;;;-0.25;48.12;98677.69;1752146;81;20936;-51
2021/12/25 13:05:25;;;;;;;5.03;1.00;;;;;;;-0.26;48.58;98685.69;1753598;81;20864;-51
2021/12/25 13:07:54;;;;;;;2.77;0.90;;;;;;;-0.26;48.55;98681.27;1753554;81;20947;-51
2021/12/25 13:10:33;;;;;;;2.90;0.80;;;;;;;-0.28;48.52;98683.06;1749577;81;20950;-51
2021/12/25 13:12:57;;;;;;;1.93;0.80;;;;;;;-0.29;48.72;98692.35;1756043;81;21749;-51
2021/12/25 13:15:32;;;;;;;2.10;1.10;;;;;;;-0.31;48.84;98703.41;1688753;84;22160;-51
2021/12/25 13:17:58;;;;;;;3.93;1.60;;;;;;;-0.33;49.27;98699.91;1723575;81;20950;-51